sensor_id;sensor_type;location;lat;lon;timestamp;P1;durP1;ratioP1;P2;durP2;ratioP2
4519;SDS011;2272;49.226;8.108;2023-01-09T00:01:10;3.37;;;3.17;;
4519;SDS011;2272;49.226;8.108;2023-01-09T00:03:40;3.60;;;3.30;;
4519;SDS011;2272;49.226;8.108;2023-01-09T00:06:06;3.60;;;3.40;;
4519;SDS011;2272;49.226;8.108;2023-01-09T00:08:33;4.40;;;4.10;;
4519;SDS011;2272;49.226;8.108;2023-01-09T00:11:00;3.90;;;3.57;;
4519;SDS011;2272;49.226;8.108;2023-01-09T00:13:26;3.83;;;3.53;;
4519;SDS011;2272;49.226;8.108;2023-01-09T00:15:53;4.37;;;3.80;;
4519;SDS011;2272;49.226;8.108;2023-01-09T00:18:20;3.30;;;3.20;;
4519;SDS011;2272;49.226;8.108;2023-01-09T00:20:48;3.20;;;3.03;;
4519;SDS011;2272;49.226;8.108;2023-01-09T00:23:14;4.27;;;3.97;;
4519;SDS011;2272;49.226;8.108;2023-01-09T00:25:41;3.60;;;3.40;;
4519;SDS011;2272;49.226;8.108;2023-01-09T00:28:08;3.47;;;3.27;;
4519;SDS011;2272;49.226;8.108;2023-01-09T00:30:34;3.37;;;3.27;;
4519;SDS011;2272;49.226;8.108;2023-01-09T00:33:01;3.53;;;3.43;;
4519;SDS011;2272;49.226;8.108;2023-01-09T00:35:28;4.50;;;3.73;;
4519;SDS011;2272;49.226;8.108;2023-01-09T00:37:56;3.43;;;2.97;;
4519;SDS011;2272;49.226;8.108;2023-01-09T00:40:22;8.23;;;3.57;;
4519;SDS011;2272;49.226;8.108;2023-01-09T00:42:50;4.43;;;4.03;;
4519;SDS011;2272;49.226;8.108;2023-01-09T00:45:21;3.77;;;3.47;;
4519;SDS011;2272;49.226;8.108;2023-01-09T00:47:52;3.00;;;2.90;;
4519;SDS011;2272;49.226;8.108;2023-01-09T00:50:23;3.80;;;3.60;;
4519;SDS011;2272;49.226;8.108;2023-01-09T00:52:52;3.67;;;3.40;;
4519;SDS011;2272;49.226;8.108;2023-01-09T00:55:21;3.73;;;3.53;;
4519;SDS011;2272;49.226;8.108;2023-01-09T00:57:48;3.20;;;3.10;;
4519;SDS011;2272;49.226;8.108;2023-01-09T01:00:15;3.07;;;2.97;;
4519;SDS011;2272;49.226;8.108;2023-01-09T01:02:43;2.80;;;2.70;;
4519;SDS011;2272;49.226;8.108;2023-01-09T01:05:09;3.30;;;3.20;;
4519;SDS011;2272;49.226;8.108;2023-01-09T01:07:50;3.70;;;2.67;;
4519;SDS011;2272;49.226;8.108;2023-01-09T01:10:17;3.10;;;2.90;;
4519;SDS011;2272;49.226;8.108;2023-01-09T01:12:47;2.40;;;2.30;;
4519;SDS011;2272;49.226;8.108;2023-01-09T01:15:15;2.50;;;2.40;;
4519;SDS011;2272;49.226;8.108;2023-01-09T01:17:42;2.37;;;2.27;;
4519;SDS011;2272;49.226;8.108;2023-01-09T01:20:10;2.90;;;2.80;;
4519;SDS011;2272;49.226;8.108;2023-01-09T01:22:38;2.70;;;2.60;;
4519;SDS011;2272;49.226;8.108;2023-01-09T01:25:06;3.23;;;3.03;;
4519;SDS011;2272;49.226;8.108;2023-01-09T01:27:34;3.57;;;2.93;;
4519;SDS011;2272;49.226;8.108;2023-01-09T01:30:03;2.63;;;2.53;;
4519;SDS011;2272;49.226;8.108;2023-01-09T01:32:30;2.83;;;2.73;;
4519;SDS011;2272;49.226;8.108;2023-01-09T01:34:56;2.47;;;2.33;;
4519;SDS011;2272;49.226;8.108;2023-01-09T01:37:23;2.50;;;2.40;;
4519;SDS011;2272;49.226;8.108;2023-01-09T01:39:51;1.90;;;1.90;;
4519;SDS011;2272;49.226;8.108;2023-01-09T01:42:18;1.17;;;1.17;;
4519;SDS011;2272;49.226;8.108;2023-01-09T01:44:56;1.10;;;1.07;;
4519;SDS011;2272;49.226;8.108;2023-01-09T01:47:31;1.37;;;1.27;;
4519;SDS011;2272;49.226;8.108;2023-01-09T01:50:04;0.90;;;0.90;;
4519;SDS011;2272;49.226;8.108;2023-01-09T01:52:36;0.90;;;0.90;;
4519;SDS011;2272;49.226;8.108;2023-01-09T01:55:04;0.93;;;0.93;;
4519;SDS011;2272;49.226;8.108;2023-01-09T01:57:33;0.87;;;0.73;;
4519;SDS011;2272;49.226;8.108;2023-01-09T02:00:00;0.67;;;0.67;;
4519;SDS011;2272;49.226;8.108;2023-01-09T02:02:31;0.70;;;0.70;;
4519;SDS011;2272;49.226;8.108;2023-01-09T02:04:58;0.60;;;0.60;;
4519;SDS011;2272;49.226;8.108;2023-01-09T02:07:26;0.70;;;0.60;;
4519;SDS011;2272;49.226;8.108;2023-01-09T02:09:53;1.37;;;0.70;;
4519;SDS011;2272;49.226;8.108;2023-01-09T02:12:22;0.80;;;0.80;;
4519;SDS011;2272;49.226;8.108;2023-01-09T02:14:50;0.50;;;0.50;;
4519;SDS011;2272;49.226;8.108;2023-01-09T02:17:23;0.60;;;0.60;;
4519;SDS011;2272;49.226;8.108;2023-01-09T02:20:12;0.83;;;0.83;;
4519;SDS011;2272;49.226;8.108;2023-01-09T02:23:15;0.90;;;0.90;;
4519;SDS011;2272;49.226;8.108;2023-01-09T02:26:10;0.80;;;0.80;;
4519;SDS011;2272;49.226;8.108;2023-01-09T02:31:56;8.60;;;1.20;;
4519;SDS011;2272;49.226;8.108;2023-01-09T02:34:31;1.27;;;1.17;;
4519;SDS011;2272;49.226;8.108;2023-01-09T02:37:06;2.50;;;1.10;;
4519;SDS011;2272;49.226;8.108;2023-01-09T02:39:40;0.67;;;0.67;;
4519;SDS011;2272;49.226;8.108;2023-01-09T02:42:12;1.00;;;0.90;;
4519;SDS011;2272;49.226;8.108;2023-01-09T02:44:42;2.97;;;1.00;;
4519;SDS011;2272;49.226;8.108;2023-01-09T02:50:09;0.60;;;0.60;;
4519;SDS011;2272;49.226;8.108;2023-01-09T02:52:52;0.80;;;0.60;;
4519;SDS011;2272;49.226;8.108;2023-01-09T02:55:34;1.30;;;0.73;;
4519;SDS011;2272;49.226;8.108;2023-01-09T02:58:21;1.37;;;0.70;;
4519;SDS011;2272;49.226;8.108;2023-01-09T03:01:02;0.50;;;0.50;;
4519;SDS011;2272;49.226;8.108;2023-01-09T03:03:39;0.97;;;0.70;;
4519;SDS011;2272;49.226;8.108;2023-01-09T03:06:11;1.90;;;0.57;;
4519;SDS011;2272;49.226;8.108;2023-01-09T03:08:47;0.60;;;0.60;;
4519;SDS011;2272;49.226;8.108;2023-01-09T03:11:17;0.50;;;0.50;;
4519;SDS011;2272;49.226;8.108;2023-01-09T03:13:46;0.57;;;0.53;;
4519;SDS011;2272;49.226;8.108;2023-01-09T03:16:17;1.40;;;0.53;;
4519;SDS011;2272;49.226;8.108;2023-01-09T03:18:50;2.30;;;0.50;;
4519;SDS011;2272;49.226;8.108;2023-01-09T03:21:19;0.80;;;0.70;;
4519;SDS011;2272;49.226;8.108;2023-01-09T03:23:48;2.30;;;0.80;;
4519;SDS011;2272;49.226;8.108;2023-01-09T03:26:16;0.90;;;0.60;;
4519;SDS011;2272;49.226;8.108;2023-01-09T03:28:43;0.50;;;0.50;;
4519;SDS011;2272;49.226;8.108;2023-01-09T03:31:10;0.60;;;0.60;;
4519;SDS011;2272;49.226;8.108;2023-01-09T03:33:37;0.50;;;0.50;;
4519;SDS011;2272;49.226;8.108;2023-01-09T03:36:06;0.60;;;0.60;;
4519;SDS011;2272;49.226;8.108;2023-01-09T03:38:33;0.60;;;0.50;;
4519;SDS011;2272;49.226;8.108;2023-01-09T03:41:00;2.00;;;0.80;;
4519;SDS011;2272;49.226;8.108;2023-01-09T03:43:27;1.30;;;0.90;;
4519;SDS011;2272;49.226;8.108;2023-01-09T03:45:54;1.10;;;1.10;;
4519;SDS011;2272;49.226;8.108;2023-01-09T03:48:20;11.80;;;8.73;;
4519;SDS011;2272;49.226;8.108;2023-01-09T03:50:47;7.70;;;5.90;;
4519;SDS011;2272;49.226;8.108;2023-01-09T03:53:15;3.80;;;3.53;;
4519;SDS011;2272;49.226;8.108;2023-01-09T03:55:44;4.23;;;3.90;;
4519;SDS011;2272;49.226;8.108;2023-01-09T03:58:11;3.23;;;3.03;;
4519;SDS011;2272;49.226;8.108;2023-01-09T04:00:38;10.23;;;6.90;;
4519;SDS011;2272;49.226;8.108;2023-01-09T04:03:05;10.90;;;7.67;;
4519;SDS011;2272;49.226;8.108;2023-01-09T04:05:32;6.43;;;5.77;;
4519;SDS011;2272;49.226;8.108;2023-01-09T04:07:59;2.97;;;2.83;;
4519;SDS011;2272;49.226;8.108;2023-01-09T04:10:27;3.00;;;2.60;;
4519;SDS011;2272;49.226;8.108;2023-01-09T04:12:54;3.77;;;3.53;;
4519;SDS011;2272;49.226;8.108;2023-01-09T04:15:21;1.60;;;1.50;;
4519;SDS011;2272;49.226;8.108;2023-01-09T04:17:48;8.13;;;6.30;;
4519;SDS011;2272;49.226;8.108;2023-01-09T04:20:15;3.00;;;2.80;;
4519;SDS011;2272;49.226;8.108;2023-01-09T04:22:42;2.30;;;1.60;;
4519;SDS011;2272;49.226;8.108;2023-01-09T04:25:09;3.60;;;1.80;;
4519;SDS011;2272;49.226;8.108;2023-01-09T04:27:37;5.67;;;1.17;;
4519;SDS011;2272;49.226;8.108;2023-01-09T04:30:04;3.90;;;1.43;;
4519;SDS011;2272;49.226;8.108;2023-01-09T04:32:31;2.50;;;1.10;;
4519;SDS011;2272;49.226;8.108;2023-01-09T04:34:58;1.40;;;1.23;;
4519;SDS011;2272;49.226;8.108;2023-01-09T04:37:25;7.03;;;0.90;;
4519;SDS011;2272;49.226;8.108;2023-01-09T04:39:51;1.20;;;1.10;;
4519;SDS011;2272;49.226;8.108;2023-01-09T04:42:20;3.53;;;2.13;;
4519;SDS011;2272;49.226;8.108;2023-01-09T04:44:48;3.07;;;2.60;;
4519;SDS011;2272;49.226;8.108;2023-01-09T04:47:17;3.80;;;2.60;;
4519;SDS011;2272;49.226;8.108;2023-01-09T04:49:44;4.70;;;1.70;;
4519;SDS011;2272;49.226;8.108;2023-01-09T04:52:11;2.50;;;1.40;;
4519;SDS011;2272;49.226;8.108;2023-01-09T04:54:37;13.40;;;6.40;;
4519;SDS011;2272;49.226;8.108;2023-01-09T04:57:04;4.60;;;1.80;;
4519;SDS011;2272;49.226;8.108;2023-01-09T04:59:31;2.40;;;2.20;;
4519;SDS011;2272;49.226;8.108;2023-01-09T05:01:59;6.83;;;2.77;;
4519;SDS011;2272;49.226;8.108;2023-01-09T05:04:25;2.63;;;1.77;;
4519;SDS011;2272;49.226;8.108;2023-01-09T05:06:52;4.77;;;2.07;;
4519;SDS011;2272;49.226;8.108;2023-01-09T05:09:19;8.63;;;4.67;;
4519;SDS011;2272;49.226;8.108;2023-01-09T05:11:46;11.83;;;6.53;;
4519;SDS011;2272;49.226;8.108;2023-01-09T05:14:13;4.10;;;1.80;;
4519;SDS011;2272;49.226;8.108;2023-01-09T05:16:39;5.40;;;1.27;;
4519;SDS011;2272;49.226;8.108;2023-01-09T05:19:07;4.57;;;0.90;;
4519;SDS011;2272;49.226;8.108;2023-01-09T05:21:34;2.67;;;0.87;;
4519;SDS011;2272;49.226;8.108;2023-01-09T05:24:01;3.03;;;1.13;;
4519;SDS011;2272;49.226;8.108;2023-01-09T05:26:28;2.67;;;1.13;;
4519;SDS011;2272;49.226;8.108;2023-01-09T05:28:54;3.10;;;1.10;;
4519;SDS011;2272;49.226;8.108;2023-01-09T05:31:22;3.83;;;0.83;;
4519;SDS011;2272;49.226;8.108;2023-01-09T05:33:49;1.33;;;0.77;;
4519;SDS011;2272;49.226;8.108;2023-01-09T05:36:17;1.73;;;0.90;;
4519;SDS011;2272;49.226;8.108;2023-01-09T05:38:44;2.50;;;1.03;;
4519;SDS011;2272;49.226;8.108;2023-01-09T05:41:10;1.03;;;1.00;;
4519;SDS011;2272;49.226;8.108;2023-01-09T05:43:37;6.37;;;0.93;;
4519;SDS011;2272;49.226;8.108;2023-01-09T05:46:04;4.33;;;1.43;;
4519;SDS011;2272;49.226;8.108;2023-01-09T05:48:31;1.20;;;1.10;;
4519;SDS011;2272;49.226;8.108;2023-01-09T05:50:57;4.73;;;1.30;;
4519;SDS011;2272;49.226;8.108;2023-01-09T05:53:25;5.60;;;1.20;;
4519;SDS011;2272;49.226;8.108;2023-01-09T05:55:52;4.43;;;1.10;;
4519;SDS011;2272;49.226;8.108;2023-01-09T05:58:18;6.93;;;1.87;;
4519;SDS011;2272;49.226;8.108;2023-01-09T06:00:45;2.53;;;1.50;;
4519;SDS011;2272;49.226;8.108;2023-01-09T06:03:12;1.90;;;1.00;;
4519;SDS011;2272;49.226;8.108;2023-01-09T06:05:39;5.07;;;1.60;;
4519;SDS011;2272;49.226;8.108;2023-01-09T06:08:05;1.33;;;1.23;;
4519;SDS011;2272;49.226;8.108;2023-01-09T06:10:33;3.47;;;1.80;;
4519;SDS011;2272;49.226;8.108;2023-01-09T06:13:00;5.70;;;1.77;;
4519;SDS011;2272;49.226;8.108;2023-01-09T06:15:27;4.10;;;1.30;;
4519;SDS011;2272;49.226;8.108;2023-01-09T06:17:53;2.10;;;1.87;;
4519;SDS011;2272;49.226;8.108;2023-01-09T06:20:20;5.10;;;1.47;;
4519;SDS011;2272;49.226;8.108;2023-01-09T06:22:47;4.17;;;1.70;;
4519;SDS011;2272;49.226;8.108;2023-01-09T06:25:16;3.53;;;1.63;;
4519;SDS011;2272;49.226;8.108;2023-01-09T06:27:44;3.67;;;1.63;;
4519;SDS011;2272;49.226;8.108;2023-01-09T06:30:11;1.57;;;1.20;;
4519;SDS011;2272;49.226;8.108;2023-01-09T06:32:38;1.70;;;1.57;;
4519;SDS011;2272;49.226;8.108;2023-01-09T06:35:04;5.03;;;1.90;;
4519;SDS011;2272;49.226;8.108;2023-01-09T06:37:31;8.07;;;1.70;;
4519;SDS011;2272;49.226;8.108;2023-01-09T06:39:58;2.47;;;1.30;;
4519;SDS011;2272;49.226;8.108;2023-01-09T06:42:25;6.73;;;1.60;;
4519;SDS011;2272;49.226;8.108;2023-01-09T06:44:53;1.30;;;0.90;;
4519;SDS011;2272;49.226;8.108;2023-01-09T06:47:19;1.73;;;1.23;;
4519;SDS011;2272;49.226;8.108;2023-01-09T06:49:46;3.50;;;1.47;;
4519;SDS011;2272;49.226;8.108;2023-01-09T06:52:13;5.17;;;1.17;;
4519;SDS011;2272;49.226;8.108;2023-01-09T06:54:39;3.67;;;1.40;;
4519;SDS011;2272;49.226;8.108;2023-01-09T06:57:06;6.20;;;1.10;;
4519;SDS011;2272;49.226;8.108;2023-01-09T06:59:32;7.73;;;1.70;;
4519;SDS011;2272;49.226;8.108;2023-01-09T07:02:01;5.00;;;1.20;;
4519;SDS011;2272;49.226;8.108;2023-01-09T07:04:27;9.53;;;1.73;;
4519;SDS011;2272;49.226;8.108;2023-01-09T07:06:54;6.53;;;1.20;;
4519;SDS011;2272;49.226;8.108;2023-01-09T07:09:21;7.00;;;1.83;;
4519;SDS011;2272;49.226;8.108;2023-01-09T07:11:47;9.93;;;1.60;;
4519;SDS011;2272;49.226;8.108;2023-01-09T07:14:14;10.60;;;1.80;;
4519;SDS011;2272;49.226;8.108;2023-01-09T07:16:41;3.60;;;1.53;;
4519;SDS011;2272;49.226;8.108;2023-01-09T07:19:09;6.00;;;1.87;;
4519;SDS011;2272;49.226;8.108;2023-01-09T07:21:35;17.90;;;11.00;;
4519;SDS011;2272;49.226;8.108;2023-01-09T07:24:02;5.70;;;3.10;;
4519;SDS011;2272;49.226;8.108;2023-01-09T07:26:28;4.60;;;3.50;;
4519;SDS011;2272;49.226;8.108;2023-01-09T07:28:55;7.80;;;1.50;;
4519;SDS011;2272;49.226;8.108;2023-01-09T07:31:22;1.20;;;1.10;;
4519;SDS011;2272;49.226;8.108;2023-01-09T07:33:48;5.80;;;1.40;;
4519;SDS011;2272;49.226;8.108;2023-01-09T07:36:16;3.10;;;1.03;;
4519;SDS011;2272;49.226;8.108;2023-01-09T07:38:43;5.13;;;1.60;;
4519;SDS011;2272;49.226;8.108;2023-01-09T07:41:10;10.43;;;1.90;;
4519;SDS011;2272;49.226;8.108;2023-01-09T07:43:37;5.50;;;1.70;;
4519;SDS011;2272;49.226;8.108;2023-01-09T07:46:04;6.77;;;1.70;;
4519;SDS011;2272;49.226;8.108;2023-01-09T07:48:31;4.57;;;2.13;;
4519;SDS011;2272;49.226;8.108;2023-01-09T07:50:58;3.53;;;2.00;;
4519;SDS011;2272;49.226;8.108;2023-01-09T07:53:26;7.63;;;2.97;;
4519;SDS011;2272;49.226;8.108;2023-01-09T07:55:52;7.33;;;2.20;;
4519;SDS011;2272;49.226;8.108;2023-01-09T07:58:19;4.13;;;2.60;;
4519;SDS011;2272;49.226;8.108;2023-01-09T08:00:46;5.37;;;2.87;;
4519;SDS011;2272;49.226;8.108;2023-01-09T08:03:12;3.97;;;2.23;;
4519;SDS011;2272;49.226;8.108;2023-01-09T08:05:39;2.47;;;1.87;;
4519;SDS011;2272;49.226;8.108;2023-01-09T08:08:06;6.50;;;2.03;;
4519;SDS011;2272;49.226;8.108;2023-01-09T08:10:34;10.07;;;4.10;;
4519;SDS011;2272;49.226;8.108;2023-01-09T08:13:00;2.20;;;1.90;;
4519;SDS011;2272;49.226;8.108;2023-01-09T08:15:27;14.53;;;3.50;;
4519;SDS011;2272;49.226;8.108;2023-01-09T08:17:54;6.20;;;4.90;;
4519;SDS011;2272;49.226;8.108;2023-01-09T08:20:21;7.13;;;2.80;;
4519;SDS011;2272;49.226;8.108;2023-01-09T08:22:48;4.10;;;2.00;;
4519;SDS011;2272;49.226;8.108;2023-01-09T08:25:14;2.70;;;1.70;;
4519;SDS011;2272;49.226;8.108;2023-01-09T08:27:43;3.47;;;0.90;;
4519;SDS011;2272;49.226;8.108;2023-01-09T08:30:11;2.43;;;1.83;;
4519;SDS011;2272;49.226;8.108;2023-01-09T08:32:38;5.37;;;2.10;;
4519;SDS011;2272;49.226;8.108;2023-01-09T08:35:05;5.80;;;1.57;;
4519;SDS011;2272;49.226;8.108;2023-01-09T08:37:32;1.60;;;0.70;;
4519;SDS011;2272;49.226;8.108;2023-01-09T08:39:59;1.63;;;0.77;;
4519;SDS011;2272;49.226;8.108;2023-01-09T08:42:26;0.80;;;0.80;;
4519;SDS011;2272;49.226;8.108;2023-01-09T08:45:11;5.70;;;1.90;;
4519;SDS011;2272;49.226;8.108;2023-01-09T08:47:55;1.90;;;1.10;;
4519;SDS011;2272;49.226;8.108;2023-01-09T08:50:22;3.70;;;1.00;;
4519;SDS011;2272;49.226;8.108;2023-01-09T08:52:49;3.03;;;1.17;;
4519;SDS011;2272;49.226;8.108;2023-01-09T08:55:16;9.03;;;2.80;;
4519;SDS011;2272;49.226;8.108;2023-01-09T08:57:46;5.53;;;2.20;;
4519;SDS011;2272;49.226;8.108;2023-01-09T09:00:16;7.03;;;1.27;;
4519;SDS011;2272;49.226;8.108;2023-01-09T09:02:43;11.20;;;2.07;;
4519;SDS011;2272;49.226;8.108;2023-01-09T09:05:10;6.30;;;1.67;;
4519;SDS011;2272;49.226;8.108;2023-01-09T09:07:37;4.77;;;1.43;;
4519;SDS011;2272;49.226;8.108;2023-01-09T09:10:05;4.00;;;0.93;;
4519;SDS011;2272;49.226;8.108;2023-01-09T09:12:32;3.53;;;1.13;;
4519;SDS011;2272;49.226;8.108;2023-01-09T09:14:59;6.60;;;1.43;;
4519;SDS011;2272;49.226;8.108;2023-01-09T09:17:41;6.00;;;1.50;;
4519;SDS011;2272;49.226;8.108;2023-01-09T09:20:08;3.07;;;1.27;;
4519;SDS011;2272;49.226;8.108;2023-01-09T09:22:36;4.40;;;1.30;;
4519;SDS011;2272;49.226;8.108;2023-01-09T09:25:03;8.93;;;1.67;;
4519;SDS011;2272;49.226;8.108;2023-01-09T09:27:30;2.60;;;1.50;;
4519;SDS011;2272;49.226;8.108;2023-01-09T09:29:57;2.20;;;1.53;;
4519;SDS011;2272;49.226;8.108;2023-01-09T09:32:24;3.33;;;3.03;;
4519;SDS011;2272;49.226;8.108;2023-01-09T09:34:52;3.53;;;1.40;;
4519;SDS011;2272;49.226;8.108;2023-01-09T09:37:19;3.13;;;1.67;;
4519;SDS011;2272;49.226;8.108;2023-01-09T09:39:45;3.60;;;1.33;;
4519;SDS011;2272;49.226;8.108;2023-01-09T09:42:16;3.50;;;1.23;;
4519;SDS011;2272;49.226;8.108;2023-01-09T09:45:16;4.40;;;1.33;;
4519;SDS011;2272;49.226;8.108;2023-01-09T09:47:52;8.80;;;2.40;;
4519;SDS011;2272;49.226;8.108;2023-01-09T09:53:24;3.07;;;1.17;;
4519;SDS011;2272;49.226;8.108;2023-01-09T09:55:54;4.73;;;1.73;;
4519;SDS011;2272;49.226;8.108;2023-01-09T09:58:23;14.13;;;5.97;;
4519;SDS011;2272;49.226;8.108;2023-01-09T10:00:56;18.53;;;6.67;;
4519;SDS011;2272;49.226;8.108;2023-01-09T10:03:25;29.20;;;10.53;;
4519;SDS011;2272;49.226;8.108;2023-01-09T10:05:59;22.63;;;10.10;;
4519;SDS011;2272;49.226;8.108;2023-01-09T10:08:33;14.87;;;4.00;;
4519;SDS011;2272;49.226;8.108;2023-01-09T10:11:07;24.03;;;8.97;;
4519;SDS011;2272;49.226;8.108;2023-01-09T10:13:40;15.13;;;8.23;;
4519;SDS011;2272;49.226;8.108;2023-01-09T10:16:26;5.13;;;4.00;;
4519;SDS011;2272;49.226;8.108;2023-01-09T10:19:04;13.93;;;7.30;;
4519;SDS011;2272;49.226;8.108;2023-01-09T10:21:43;9.67;;;3.67;;
4519;SDS011;2272;49.226;8.108;2023-01-09T10:24:25;5.00;;;2.70;;
4519;SDS011;2272;49.226;8.108;2023-01-09T10:27:06;6.13;;;1.93;;
4519;SDS011;2272;49.226;8.108;2023-01-09T10:29:50;1.47;;;1.37;;
4519;SDS011;2272;49.226;8.108;2023-01-09T10:32:37;2.70;;;1.30;;
4519;SDS011;2272;49.226;8.108;2023-01-09T10:35:22;3.07;;;1.60;;
4519;SDS011;2272;49.226;8.108;2023-01-09T10:38:00;5.03;;;2.20;;
4519;SDS011;2272;49.226;8.108;2023-01-09T10:40:31;4.00;;;2.20;;
4519;SDS011;2272;49.226;8.108;2023-01-09T10:43:05;1.90;;;1.80;;
4519;SDS011;2272;49.226;8.108;2023-01-09T10:45:37;4.93;;;3.90;;
4519;SDS011;2272;49.226;8.108;2023-01-09T10:48:19;2.00;;;1.70;;
4519;SDS011;2272;49.226;8.108;2023-01-09T10:50:50;1.00;;;0.80;;
4519;SDS011;2272;49.226;8.108;2023-01-09T10:53:24;1.73;;;1.47;;
4519;SDS011;2272;49.226;8.108;2023-01-09T10:55:54;6.73;;;1.53;;
4519;SDS011;2272;49.226;8.108;2023-01-09T10:58:26;3.47;;;1.30;;
4519;SDS011;2272;49.226;8.108;2023-01-09T11:00:53;2.30;;;2.00;;
4519;SDS011;2272;49.226;8.108;2023-01-09T11:03:21;5.60;;;1.73;;
4519;SDS011;2272;49.226;8.108;2023-01-09T11:05:49;6.60;;;1.07;;
4519;SDS011;2272;49.226;8.108;2023-01-09T11:08:21;2.40;;;1.03;;
4519;SDS011;2272;49.226;8.108;2023-01-09T11:10:53;2.30;;;1.43;;
4519;SDS011;2272;49.226;8.108;2023-01-09T11:13:21;6.27;;;1.30;;
4519;SDS011;2272;49.226;8.108;2023-01-09T11:16:01;2.30;;;0.90;;
4519;SDS011;2272;49.226;8.108;2023-01-09T11:18:30;1.37;;;1.13;;
4519;SDS011;2272;49.226;8.108;2023-01-09T11:21:10;1.80;;;1.40;;
4519;SDS011;2272;49.226;8.108;2023-01-09T11:23:40;1.47;;;1.40;;
4519;SDS011;2272;49.226;8.108;2023-01-09T11:26:08;1.33;;;1.23;;
4519;SDS011;2272;49.226;8.108;2023-01-09T11:28:58;1.83;;;1.40;;
4519;SDS011;2272;49.226;8.108;2023-01-09T11:31:30;3.33;;;1.70;;
4519;SDS011;2272;49.226;8.108;2023-01-09T11:33:57;1.80;;;1.30;;
4519;SDS011;2272;49.226;8.108;2023-01-09T11:36:24;1.07;;;1.00;;
4519;SDS011;2272;49.226;8.108;2023-01-09T11:38:53;2.80;;;1.13;;
4519;SDS011;2272;49.226;8.108;2023-01-09T11:41:22;2.20;;;1.43;;
4519;SDS011;2272;49.226;8.108;2023-01-09T11:43:51;1.10;;;1.00;;
4519;SDS011;2272;49.226;8.108;2023-01-09T11:52:03;6.00;;;0.90;;
4519;SDS011;2272;49.226;8.108;2023-01-09T11:54:40;0.70;;;0.70;;
4519;SDS011;2272;49.226;8.108;2023-01-09T11:57:10;1.93;;;0.83;;
4519;SDS011;2272;49.226;8.108;2023-01-09T11:59:37;2.50;;;0.87;;
4519;SDS011;2272;49.226;8.108;2023-01-09T12:02:10;1.63;;;1.00;;
4519;SDS011;2272;49.226;8.108;2023-01-09T12:04:53;1.27;;;1.17;;
4519;SDS011;2272;49.226;8.108;2023-01-09T12:07:29;1.10;;;0.90;;
4519;SDS011;2272;49.226;8.108;2023-01-09T12:10:21;3.60;;;0.70;;
4519;SDS011;2272;49.226;8.108;2023-01-09T12:12:59;1.47;;;0.87;;
4519;SDS011;2272;49.226;8.108;2023-01-09T12:15:32;3.50;;;1.03;;
4519;SDS011;2272;49.226;8.108;2023-01-09T12:18:10;0.67;;;0.67;;
4519;SDS011;2272;49.226;8.108;2023-01-09T12:21:06;3.97;;;0.73;;
4519;SDS011;2272;49.226;8.108;2023-01-09T12:23:49;1.20;;;0.80;;
4519;SDS011;2272;49.226;8.108;2023-01-09T12:26:27;2.73;;;0.77;;
4519;SDS011;2272;49.226;8.108;2023-01-09T12:29:11;3.23;;;0.90;;
4519;SDS011;2272;49.226;8.108;2023-01-09T12:32:02;2.50;;;1.00;;
4519;SDS011;2272;49.226;8.108;2023-01-09T12:34:44;0.90;;;0.67;;
4519;SDS011;2272;49.226;8.108;2023-01-09T12:37:33;0.60;;;0.60;;
4519;SDS011;2272;49.226;8.108;2023-01-09T12:40:19;2.20;;;0.63;;
4519;SDS011;2272;49.226;8.108;2023-01-09T12:43:01;2.40;;;1.13;;
4519;SDS011;2272;49.226;8.108;2023-01-09T12:45:45;1.20;;;1.10;;
4519;SDS011;2272;49.226;8.108;2023-01-09T12:48:25;1.97;;;0.90;;
4519;SDS011;2272;49.226;8.108;2023-01-09T12:51:08;1.53;;;0.87;;
4519;SDS011;2272;49.226;8.108;2023-01-09T12:53:46;4.67;;;0.90;;
4519;SDS011;2272;49.226;8.108;2023-01-09T12:56:17;1.13;;;0.60;;
4519;SDS011;2272;49.226;8.108;2023-01-09T12:58:51;2.67;;;1.47;;
4519;SDS011;2272;49.226;8.108;2023-01-09T13:01:23;2.10;;;0.90;;
4519;SDS011;2272;49.226;8.108;2023-01-09T13:03:56;1.20;;;1.00;;
4519;SDS011;2272;49.226;8.108;2023-01-09T13:06:29;1.37;;;0.90;;
4519;SDS011;2272;49.226;8.108;2023-01-09T13:09:04;1.23;;;1.10;;
4519;SDS011;2272;49.226;8.108;2023-01-09T13:11:39;3.60;;;0.93;;
4519;SDS011;2272;49.226;8.108;2023-01-09T13:14:12;1.33;;;1.17;;
4519;SDS011;2272;49.226;8.108;2023-01-09T13:16:45;1.03;;;0.87;;
4519;SDS011;2272;49.226;8.108;2023-01-09T13:19:15;1.20;;;1.10;;
4519;SDS011;2272;49.226;8.108;2023-01-09T13:21:46;1.87;;;1.73;;
4519;SDS011;2272;49.226;8.108;2023-01-09T13:24:14;3.27;;;1.73;;
4519;SDS011;2272;49.226;8.108;2023-01-09T13:26:45;2.50;;;0.97;;
4519;SDS011;2272;49.226;8.108;2023-01-09T13:29:16;1.57;;;1.10;;
4519;SDS011;2272;49.226;8.108;2023-01-09T13:31:55;1.73;;;1.17;;
4519;SDS011;2272;49.226;8.108;2023-01-09T13:34:38;1.30;;;1.20;;
4519;SDS011;2272;49.226;8.108;2023-01-09T13:37:06;4.00;;;1.40;;
4519;SDS011;2272;49.226;8.108;2023-01-09T13:39:50;2.07;;;1.17;;
4519;SDS011;2272;49.226;8.108;2023-01-09T13:42:21;3.30;;;2.20;;
4519;SDS011;2272;49.226;8.108;2023-01-09T13:50:43;2.40;;;1.20;;
4519;SDS011;2272;49.226;8.108;2023-01-09T13:56:11;1.47;;;1.20;;
4519;SDS011;2272;49.226;8.108;2023-01-09T13:59:00;4.73;;;1.07;;
4519;SDS011;2272;49.226;8.108;2023-01-09T14:01:42;6.40;;;1.23;;
4519;SDS011;2272;49.226;8.108;2023-01-09T14:09:56;1.80;;;1.57;;
4519;SDS011;2272;49.226;8.108;2023-01-09T14:12:24;0.97;;;0.90;;
4519;SDS011;2272;49.226;8.108;2023-01-09T14:14:53;1.60;;;0.80;;
4519;SDS011;2272;49.226;8.108;2023-01-09T14:17:25;1.67;;;0.80;;
4519;SDS011;2272;49.226;8.108;2023-01-09T14:19:57;8.30;;;1.10;;
4519;SDS011;2272;49.226;8.108;2023-01-09T14:22:26;2.83;;;1.10;;
4519;SDS011;2272;49.226;8.108;2023-01-09T14:24:59;1.40;;;0.90;;
4519;SDS011;2272;49.226;8.108;2023-01-09T14:30:36;1.00;;;0.67;;
4519;SDS011;2272;49.226;8.108;2023-01-09T14:33:23;2.20;;;1.00;;
4519;SDS011;2272;49.226;8.108;2023-01-09T14:35:53;1.10;;;0.90;;
4519;SDS011;2272;49.226;8.108;2023-01-09T14:38:29;3.60;;;1.03;;
4519;SDS011;2272;49.226;8.108;2023-01-09T14:40:59;1.10;;;0.80;;
4519;SDS011;2272;49.226;8.108;2023-01-09T14:43:32;0.80;;;0.60;;
4519;SDS011;2272;49.226;8.108;2023-01-09T14:46:09;0.67;;;0.67;;
4519;SDS011;2272;49.226;8.108;2023-01-09T14:48:40;2.00;;;0.87;;
4519;SDS011;2272;49.226;8.108;2023-01-09T14:51:19;3.97;;;1.03;;
4519;SDS011;2272;49.226;8.108;2023-01-09T14:53:49;3.00;;;1.40;;
4519;SDS011;2272;49.226;8.108;2023-01-09T14:56:25;4.17;;;1.13;;
4519;SDS011;2272;49.226;8.108;2023-01-09T14:59:09;2.30;;;0.90;;
4519;SDS011;2272;49.226;8.108;2023-01-09T15:01:38;3.03;;;1.57;;
4519;SDS011;2272;49.226;8.108;2023-01-09T15:04:19;2.20;;;0.83;;
4519;SDS011;2272;49.226;8.108;2023-01-09T15:06:49;3.97;;;1.30;;
4519;SDS011;2272;49.226;8.108;2023-01-09T15:09:19;2.80;;;1.30;;
4519;SDS011;2272;49.226;8.108;2023-01-09T15:11:48;2.90;;;0.90;;
4519;SDS011;2272;49.226;8.108;2023-01-09T15:14:17;1.53;;;0.90;;
4519;SDS011;2272;49.226;8.108;2023-01-09T15:16:53;1.40;;;1.30;;
4519;SDS011;2272;49.226;8.108;2023-01-09T15:19:21;5.73;;;2.20;;
4519;SDS011;2272;49.226;8.108;2023-01-09T15:21:55;3.77;;;2.07;;
4519;SDS011;2272;49.226;8.108;2023-01-09T15:24:23;5.23;;;2.03;;
4519;SDS011;2272;49.226;8.108;2023-01-09T15:26:54;13.03;;;2.13;;
4519;SDS011;2272;49.226;8.108;2023-01-09T15:29:22;1.97;;;1.10;;
4519;SDS011;2272;49.226;8.108;2023-01-09T15:31:57;2.67;;;1.87;;
4519;SDS011;2272;49.226;8.108;2023-01-09T15:34:29;3.33;;;1.87;;
4519;SDS011;2272;49.226;8.108;2023-01-09T15:36:58;4.70;;;0.90;;
4519;SDS011;2272;49.226;8.108;2023-01-09T15:39:25;5.70;;;1.67;;
4519;SDS011;2272;49.226;8.108;2023-01-09T15:41:55;5.07;;;1.17;;
4519;SDS011;2272;49.226;8.108;2023-01-09T15:44:42;9.30;;;1.70;;
4519;SDS011;2272;49.226;8.108;2023-01-09T15:47:11;7.13;;;2.40;;
4519;SDS011;2272;49.226;8.108;2023-01-09T15:49:43;2.33;;;2.10;;
4519;SDS011;2272;49.226;8.108;2023-01-09T15:52:11;6.27;;;1.43;;
4519;SDS011;2272;49.226;8.108;2023-01-09T15:54:41;5.17;;;1.37;;
4519;SDS011;2272;49.226;8.108;2023-01-09T15:57:28;3.30;;;1.37;;
4519;SDS011;2272;49.226;8.108;2023-01-09T16:05:45;3.50;;;1.47;;
4519;SDS011;2272;49.226;8.108;2023-01-09T16:08:19;1.90;;;1.10;;
4519;SDS011;2272;49.226;8.108;2023-01-09T16:10:55;2.60;;;0.97;;
4519;SDS011;2272;49.226;8.108;2023-01-09T16:13:25;1.37;;;1.00;;
4519;SDS011;2272;49.226;8.108;2023-01-09T16:15:53;3.33;;;1.00;;